Date,TemperatureHighF,TemperatureAvgF,TemperatureLowF,DewpointHighF,DewpointAvgF,DewpointLowF,HumidityHigh,HumidityAvg,HumidityLow,PressureMaxIn,PressureMinIn,WindSpeedMaxMPH,WindSpeedAvgMPH,GustSpeedMaxMPH,PrecipitationSumIn
2014-1-1,54,46,42,45,43,41,95,92,73,29.79,29.74,3,2,3,0.00
2014-1-2,63,57,56,55,54,48,97,90,59,29.70,29.64,8,4,8,0.00
2014-1-3,71,59,56,56,52,47,95,79,45,29.79,29.68,9,3,9,0.00
2014-1-4,61,58,53,58,54,44,99,88,63,29.71,29.47,30,9,35,0.11
2014-1-5,60,56,52,42,38,32,63,53,41,29.79,29.72,20,7,20,0.01
2014-1-6,58,53,52,51,50,41,94,89,54,29.82,29.75,5,2,5,0.00
2014-1-7,64,51,47,53,49,44,99,93,66,29.92,29.81,6,3,6,0.00
2014-1-8,58,50,44,50,42,35,85,75,65,29.94,29.89,6,3,7,0.00
2014-1-9,56,49,46,54,49,46,99,98,93,29.90,29.81,5,3,8,0.00
2014-1-10,62,55,51,53,52,51,99,89,71,29.79,29.71,6,3,8,0.00
2014-1-11,66,54,48,56,51,46,96,88,70,29.82,29.73,5,3,5,0.00
2014-1-12,63,55,50,53,51,49,99,88,67,29.91,29.83,11,4,11,0.00
2014-1-13,57,54,48,54,51,48,99,93,86,29.86,29.66,8,3,8,0.00
2014-1-14,53,48,43,47,42,38,85,79,69,29.63,29.57,5,2,5,0.00
2014-1-15,58,48,42,48,45,41,99,91,68,29.74,29.67,4,2,4,0.00
2014-1-16,60,58,56,59,57,56,99,99,97,29.60,29.49,12,5,14,0.00
2014-1-17,56,53,50,52,50,49,99,92,80,29.45,29.38,9,2,9,0.08
2014-1-18,60,56,53,56,55,53,99,94,81,29.25,29.12,17,7,17,0.15
2014-1-19,60,53,48,57,49,41,99,87,54,29.12,29.06,11,3,11,0.37
2014-1-20,57,54,51,37,34,31,59,48,40,29.60,29.38,27,12,27,0.09
2014-1-21,57,49,44,40,38,33,84,67,42,29.69,29.65,13,3,16,0.00
2014-1-22,53,45,42,50,44,41,99,95,85,29.55,29.49,10,3,10,0.08
2014-1-23,51,49,47,46,44,42,91,83,77,29.91,29.68,10,3,14,0.02
2014-1-24,60,57,53,43,40,34,68,55,44,29.82,29.59,22,10,22,0.00
2014-1-25,58,55,52,52,50,47,94,86,75,29.75,29.68,4,2,7,0.00
2014-1-26,62,57,53,51,48,44,83,73,62,29.84,29.62,21,5,21,0.00
2014-1-27,65,59,54,45,42,29,60,54,29,29.46,29.40,16,5,26,0.00
2014-1-28,54,52,51,34,32,30,52,48,46,29.45,29.25,27,11,27,0.02
2014-1-29,56,53,50,45,42,38,81,65,54,29.18,29.15,9,3,9,0.00
2014-1-30,54,49,47,47,43,36,98,80,59,29.40,29.20,15,5,15,0.18
2014-1-31,44,40,39,41,39,38,99,95,90,29.60,29.46,4,2,4,0.01
2014-2-1,58,48,39,45,41,39,99,80,54,29.54,29.46,20,7,26,0.00
2014-2-2,56,50,46,39,37,33,67,61,43,29.71,29.64,17,6,17,0.00
2014-2-3,55,46,37,46,40,36,99,84,65,29.61,29.53,10,4,12,0.00
2014-2-4,53,50,48,42,38,35,75,64,51,29.67,29.63,9,3,11,0.00
2014-2-5,59,57,54,58,56,54,99,97,95,29.50,29.44,7,5,12,0.07
2014-2-6,65,61,57,57,53,48,99,81,56,29.92,29.79,11,5,14,0.00
2014-2-7,61,58,56,48,42,40,71,57,50,29.86,29.75,17,10,20,0.00
2014-2-8,60,58,56,56,49,38,93,76,52,29.82,29.67,15,8,21,0.00
2014-2-9,66,57,49,56,48,39,99,76,41,29.88,29.54,15,5,16,0.04
2014-2-10,56,54,50,56,42,34,99,69,47,29.73,28.91,23,13,32,0.48
2014-2-11,52,50,50,40,36,34,62,59,54,29.92,29.79,27,14,27,0.01
2014-2-12,51,50,50,40,39,38,69,65,62,29.94,29.88,9,5,10,0.00
2014-2-13,75,60,53,53,50,44,99,78,36,29.91,29.84,12,5,17,0.00
2014-2-14,66,54,52,57,53,52,99,98,75,29.91,29.81,5,2,7,0.00
2014-2-15,56,52,46,55,51,45,99,98,95,29.83,29.78,2,1,2,0.00
2014-2-16,56,51,48,53,50,46,98,94,91,29.94,29.81,6,3,7,0.00
2014-2-17,56,54,52,52,51,50,99,90,84,29.92,29.83,12,5,12,0.00
2014-2-18,65,57,54,55,54,51,97,89,68,29.68,29.58,19,6,20,0.00
2014-2-19,56,54,49,47,42,39,90,66,55,30.08,29.87,20,7,20,0.00
2014-2-20,58,48,42,44,41,35,96,78,45,30.02,29.93,4,2,4,0.00
2014-2-21,66,53,44,47,44,37,99,76,46,30.05,29.88,17,5,17,0.00
2014-2-22,63,48,42,44,39,25,99,76,28,30.19,30.09,12,4,16,0.00
2014-2-23,55,48,39,40,37,34,83,67,54,30.17,30.04,4,2,5,0.00
2014-2-24,59,53,46,52,48,44,91,85,59,30.00,29.96,8,3,8,0.00
2014-2-25,55,54,49,53,43,40,99,70,58,30.04,29.98,6,5,6,0.00
2014-2-26,62,55,48,37,33,27,65,45,30,30.23,30.12,14,6,16,0.00
2014-2-27,55,51,40,41,37,32,93,62,44,30.26,30.17,8,3,10,0.00
2014-2-28,64,54,45,51,36,28,86,55,38,30.01,29.71,27,15,33,0.02
2014-3-1,58,55,52,49,38,30,90,54,41,29.75,29.44,15,5,18,0.04
2014-3-2,64,59,49,49,44,37,88,61,40,29.61,29.54,14,5,17,0.00
2014-3-3,62,58,55,46,31,19,58,39,25,29.58,29.42,19,10,24,0.07
2014-3-4,57,56,54,36,34,33,48,45,42,29.65,29.61,34,23,40,0.05
2014-3-5,61,57,53,39,36,33,49,47,45,29.96,29.80,12,6,15,0.00
2014-3-6,65,58,53,38,32,19,57,42,20,30.10,30.04,13,7,14,0.00
2014-3-7,65,60,48,40,20,1,68,29,11,30.19,30.14,9,4,11,0.00
2014-3-8,68,60,55,36,31,23,50,37,22,30.21,30.19,3,2,4,0.00
2014-3-9,61,58,54,46,42,38,72,58,45,30.18,30.17,9,5,13,0.00
2014-3-10,56,54,50,47,45,43,78,72,61,30.12,30.11,2,2,3,0.00
2014-3-11,68,56,48,40,36,32,60,49,29,30.07,30.06,4,2,4,0.00
2014-3-12,54,54,54,43,43,43,67,67,67,30.20,30.20,4,4,4,0.00
2014-3-13,57,56,54,55,54,53,99,95,91,30.21,30.20,14,10,17,0.11
2014-3-14,47,46,46,41,41,40,81,80,79,30.16,30.15,2,1,2,0.00
2014-3-15,59,57,45,49,35,32,90,49,39,30.18,30.14,3,2,4,0.00
2014-3-16,74,58,55,48,42,34,75,58,26,30.12,30.05,8,3,8,0.00
2014-3-17,67,62,53,58,53,48,86,75,59,30.14,30.09,11,5,11,0.00
2014-3-18,75,61,50,49,44,30,75,56,22,30.09,30.06,8,3,8,0.00
2014-3-19,72,65,59,53,49,43,80,59,37,30.14,30.06,12,6,12,0.00
2014-3-20,60,57,52,54,52,51,99,84,74,30.07,29.68,8,4,8,0.00
2014-3-21,65,58,52,55,52,49,99,82,64,30.09,30.03,5,3,7,0.00
2014-3-22,59,58,58,57,57,56,95,94,94,29.92,29.91,11,6,11,0.00
2014-3-23,56,56,55,32,27,24,42,35,31,29.99,29.86,26,14,27,0.00
2014-3-24,60,60,60,44,44,43,56,56,55,29.87,29.87,7,4,10,0.00
2014-3-25,61,59,57,44,38,32,61,48,36,29.92,29.70,19,11,21,0.06
2014-3-26,56,52,50,44,41,33,80,69,44,29.74,29.65,19,7,19,0.06
2014-3-27,59,52,43,52,46,38,99,82,50,29.81,29.74,5,2,5,0.02
2014-3-28,66,59,57,43,40,32,60,52,31,29.86,29.82,14,9,14,0.01
2014-3-29,64,60,57,51,49,46,79,68,52,29.72,29.65,20,11,22,0.00
2014-3-30,57,57,57,57,56,56,99,99,99,29.76,29.75,5,4,8,0.01
2014-3-31,65,55,50,53,51,50,99,88,66,29.92,29.90,8,4,10,0.01
2014-4-1,66,64,62,49,46,43,63,54,46,29.80,29.79,8,6,9,0.00
2014-4-2,70,69,68,41,40,38,40,37,33,29.52,29.49,5,3,7,0.00
2014-4-3,61,59,54,58,56,50,98,93,83,29.44,29.39,18,11,21,0.06
2014-4-4,63,55,53,55,53,52,99,93,68,29.72,29.60,11,8,15,0.66
2014-4-5,78,67,57,47,42,32,65,46,23,30.00,29.84,15,6,20,0.00
2014-4-6,74,62,51,53,51,48,91,69,45,30.04,29.99,7,3,10,0.00
2014-4-7,71,57,53,56,54,52,99,90,58,30.09,30.05,7,3,8,0.00
2014-4-8,78,67,51,54,49,36,99,60,26,30.11,30.06,15,7,15,0.00
2014-4-9,77,67,59,55,48,39,88,56,29,30.15,30.05,15,6,15,0.00
2014-4-10,71,63,52,60,53,48,99,74,45,30.06,29.98,11,4,11,0.00
2014-4-11,70,67,56,52,42,36,85,43,34,29.96,29.85,6,2,8,0.00
2014-4-12,63,59,56,60,58,56,99,96,84,29.86,29.84,6,3,6,0.01
2014-4-13,76,60,53,59,53,47,99,82,38,30.03,30.00,14,4,14,0.00
2014-4-14,76,62,53,58,54,51,98,80,45,30.03,29.96,12,4,14,0.00
2014-4-15,72,63,55,54,52,47,90,68,43,29.93,29.87,10,3,11,0.00
2014-4-16,75,64,52,72,41,-1,90,43,10,30.04,29.96,8,3,10,0.00
2014-4-17,68,59,53,51,43,38,64,56,51,30.03,29.95,7,4,8,0.00
2014-4-18,70,62,50,62,57,49,99,85,60,29.88,29.75,12,5,12,0.00
2014-4-19,80,65,52,78,52,47,99,59,41,29.65,29.59,12,6,15,0.00
2014-4-20,73,66,61,62,56,36,98,77,29,29.52,29.45,15,5,17,0.00
2014-4-21,72,65,58,62,60,57,99,85,60,29.61,29.52,9,4,9,0.00
2014-4-22,75,66,54,61,52,44,99,69,36,29.81,29.67,16,7,20,0.00
2014-4-23,75,68,57,62,56,51,99,67,48,30.04,29.99,11,5,12,0.00
2014-4-24,64,59,55,62,55,52,93,88,82,30.03,30.01,3,2,4,0.00
2014-4-25,67,61,56,58,49,38,98,69,38,29.96,29.75,25,7,32,0.24
2014-4-26,75,68,61,59,44,22,90,51,18,29.94,29.84,15,5,16,0.00
2014-4-27,70,60,55,54,47,24,92,71,21,29.93,29.81,20,9,22,0.01
2014-4-28,78,69,54,56,40,31,98,44,22,29.90,29.84,8,3,12,0.00
2014-4-29,75,67,57,62,56,47,96,70,43,29.87,29.83,8,3,9,0.00
2014-4-30,80,67,55,62,49,27,99,63,18,29.86,29.81,12,4,14,0.00
2014-5-1,73,67,36,61,54,-7,91,67,18,29.91,29.88,15,8,18,0.00
2014-5-2,64,63,63,45,43,42,52,50,48,29.84,29.81,23,14,28,0.00
2014-5-3,72,72,71,47,46,46,44,42,42,29.88,29.87,15,11,16,0.00
2014-5-4,71,65,56,53,49,46,79,60,44,29.91,29.89,13,6,15,0.00
2014-5-5,75,65,52,50,47,44,85,57,37,29.98,29.92,10,4,11,0.00
2014-5-6,68,63,54,51,49,44,83,61,48,30.01,29.98,4,2,4,0.00
2014-5-7,65,64,61,36,34,31,39,36,35,29.96,29.95,4,2,4,0.00
2014-5-8,69,62,57,58,55,51,99,80,56,30.06,30.03,11,4,11,0.00
2014-5-9,82,69,61,57,51,41,83,60,27,30.08,30.03,10,4,10,0.00
2014-5-10,79,72,63,62,50,36,85,50,25,30.06,29.95,13,5,17,0.00
2014-5-11,80,72,61,51,47,45,57,44,34,29.92,29.89,4,3,8,0.00
2014-5-12,79,69,62,54,47,37,75,51,25,30.01,29.97,12,7,15,0.00
2014-5-13,72,65,60,53,47,42,74,54,36,30.17,29.93,18,9,21,0.00
2014-5-14,71,64,54,52,48,43,86,59,39,30.25,30.19,11,4,11,0.00
2014-5-15,65,59,53,52,50,49,88,74,58,30.19,30.18,4,2,4,0.00
2014-5-16,69,60,56,46,44,41,62,57,41,30.04,29.95,4,1,5,0.00
2014-5-17,75,61,51,36,30,21,51,37,17,29.90,29.88,15,6,18,0.00
2014-5-18,65,63,62,57,54,52,81,73,62,29.82,29.75,11,4,11,0.01
2014-5-19,74,66,57,63,58,54,99,77,52,29.73,29.69,18,5,21,0.00
2014-5-20,78,64,56,66,57,50,88,78,54,29.77,29.72,13,5,13,0.05
2014-5-21,70,64,62,69,64,62,99,99,99,29.68,29.67,4,2,4,0.00
2014-5-22,78,70,64,66,50,25,98,64,19,29.85,29.75,15,5,15,0.00
2014-5-23,77,72,60,56,51,42,81,51,32,29.90,29.84,19,7,20,0.00
2014-5-24,80,70,61,51,46,36,66,47,24,29.94,29.90,11,6,11,0.00
2014-5-25,76,67,63,66,57,47,97,77,38,29.93,29.89,15,7,15,0.00
2014-5-26,66,64,60,58,55,53,87,74,65,30.01,29.95,4,3,5,0.00
2014-5-27,70,62,55,56,55,52,93,78,62,30.03,29.93,11,4,13,0.00
2014-5-28,76,70,62,66,60,54,99,74,49,29.88,29.83,15,7,15,0.53
2014-5-29,66,64,61,59,57,55,89,80,68,29.98,29.83,11,7,14,0.56
2014-5-30,76,70,62,59,54,50,76,61,49,29.96,29.93,10,3,10,0.00
2014-5-31,69,67,63,57,56,54,80,69,61,29.98,29.94,7,3,7,0.00
2014-6-1,76,67,59,54,49,45,78,56,35,29.96,29.93,19,7,21,0.19
2014-6-2,74,67,63,53,49,45,67,55,38,29.94,29.93,12,4,16,0.00
2014-6-3,78,71,60,60,54,50,73,57,45,29.98,29.93,17,6,18,0.00
2014-6-4,81,72,61,60,58,54,82,65,44,29.83,29.78,12,5,15,0.00
2014-6-5,85,72,67,61,58,51,79,63,34,29.86,29.83,12,6,14,0.00
2014-6-6,86,77,63,53,46,36,63,40,22,29.88,29.86,11,4,11,0.00
2014-6-7,94,80,72,68,52,36,86,48,17,29.93,29.85,8,4,11,0.00
2014-6-8,87,77,70,67,56,46,84,52,35,29.94,29.92,14,5,14,0.00
2014-6-9,93,76,69,48,42,21,48,36,11,29.93,29.91,8,4,11,0.00
2014-6-10,87,81,68,48,43,37,49,31,21,29.96,29.91,9,4,12,0.00
2014-6-11,95,80,69,50,42,22,50,34,11,30.06,29.99,10,4,11,0.00
2014-6-12,96,86,70,52,39,20,50,25,10,30.05,30.01,17,6,17,0.00
2014-6-13,96,84,67,49,37,23,48,26,11,29.98,29.87,16,6,17,0.00
2014-6-14,91,78,69,67,59,37,76,58,19,29.84,29.77,11,3,13,0.00
2014-6-15,72,72,72,63,63,62,75,74,71,29.80,29.78,4,3,5,0.00
2014-6-16,84,73,64,59,51,43,67,51,27,29.89,29.83,9,4,9,0.00
2014-6-17,83,74,63,58,52,44,70,51,28,29.88,29.84,11,5,13,0.01
2014-6-18,81,69,61,63,60,54,94,76,43,29.94,29.90,11,5,13,0.02
2014-6-19,76,69,64,58,57,53,77,66,48,29.98,29.96,5,3,5,0.00
2014-6-20,91,79,69,55,45,26,51,37,13,29.93,29.83,15,4,15,0.00
2014-6-21,87,78,74,66,58,26,78,61,15,29.87,29.83,5,4,8,0.00
2014-6-22,88,74,69,68,66,63,88,77,45,29.94,29.87,8,4,9,0.00
2014-6-23,87,80,75,75,70,65,96,73,51,29.94,29.87,9,4,9,0.01
2014-6-24,82,76,70,69,66,59,90,73,50,29.83,29.78,15,4,15,0.00
2014-6-25,83,78,69,65,58,48,79,55,32,29.79,29.75,17,7,18,0.00
2014-6-26,83,72,66,64,59,55,74,67,42,29.95,29.82,6,3,9,0.00
2014-6-27,87,79,67,65,60,52,75,56,34,29.99,29.94,15,5,15,0.00
2014-6-28,94,76,67,69,51,42,80,48,21,29.92,29.76,9,4,11,0.00
2014-6-29,81,76,71,72,60,54,79,60,54,30.00,29.77,15,6,18,0.00
2014-6-30,84,78,67,62,59,56,72,53,44,30.01,29.93,12,6,15,0.00
2014-7-1,86,76,66,63,58,54,75,57,37,29.91,29.81,9,5,13,0.00
2014-7-2,87,80,70,66,61,53,78,55,34,29.97,29.80,17,8,19,0.00
2014-7-3,90,82,77,71,65,60,81,59,40,29.94,29.78,17,9,19,0.00
2014-7-4,89,84,75,62,44,24,62,31,13,29.92,29.81,21,8,21,0.00
2014-7-5,86,77,67,66,61,50,69,59,51,29.94,29.88,7,4,8,0.00
2014-7-6,87,78,66,68,62,49,66,58,45,29.85,29.77,11,7,13,0.00
2014-7-7,84,77,72,67,64,61,79,65,57,29.94,29.78,11,5,11,0.00
2014-7-8,84,78,66,63,60,56,88,57,43,29.99,29.95,13,5,14,0.00
2014-7-9,86,80,68,61,43,26,75,34,15,29.92,29.86,16,8,16,0.00
2014-7-10,82,80,77,56,45,35,50,33,23,29.91,29.85,15,9,20,0.00
2014-7-11,88,84,64,51,31,20,60,21,12,29.91,29.83,16,8,17,0.00
2014-7-12,82,73,65,57,55,52,70,57,39,29.94,29.89,15,6,16,0.00
2014-7-13,86,80,65,59,54,47,66,45,29,29.95,29.89,11,4,16,0.00
2014-7-14,89,80,70,66,63,55,80,59,35,29.96,29.90,15,6,15,0.00
2014-7-15,85,78,68,65,63,62,81,64,49,30.01,29.97,12,5,15,0.00
2014-7-16,91,85,69,67,58,51,80,46,29,30.02,29.99,11,5,15,0.00
2014-7-17,86,76,70,68,64,62,76,68,52,30.02,29.97,14,4,15,0.00
2014-7-18,100,87,68,100,50,20,50,22,10,29.96,29.82,12,6,15,0.00
2014-7-19,95,87,78,68,60,53,53,43,33,29.79,29.75,12,6,14,0.00
2014-7-24,80,80,79,61,61,59,55,54,52,29.77,29.75,8,5,8,0.00
2014-7-25,96,84,72,61,55,41,56,41,19,29.78,29.69,10,5,11,0.00
2014-7-26,91,79,70,68,62,45,73,60,24,29.89,29.81,14,4,15,0.00
2014-7-27,90,85,78,64,59,53,63,45,32,29.92,29.88,15,7,15,0.00
2014-7-28,92,84,28,62,56,18,67,43,28,29.89,29.77,11,5,11,0.00
2014-7-29,89,79,72,67,56,41,71,52,22,29.87,29.70,16,6,20,0.00
2014-7-30,87,81,68,59,56,39,72,47,22,29.86,29.80,5,4,8,0.01
2014-7-31,87,78,65,63,59,53,66,53,41,29.87,29.80,17,10,19,0.00
2014-8-1,87,79,72,69,66,62,74,65,50,29.78,29.68,13,5,14,0.00
2014-8-2,86,77,73,69,67,66,79,74,55,29.65,29.64,12,4,15,0.00
2014-8-3,84,74,72,67,64,63,75,71,59,29.80,29.75,5,3,7,0.00
2014-8-4,90,85,76,70,67,62,79,58,45,29.90,29.85,11,6,17,0.00
2014-8-5,89,80,70,67,66,64,85,64,49,29.95,29.91,12,6,14,0.00
2014-8-6,88,80,73,69,65,53,82,63,34,29.95,29.56,12,6,12,0.00
2014-8-7,90,83,72,67,64,60,82,56,40,29.93,29.86,15,7,17,0.00
2014-8-8,94,78,71,61,59,56,68,56,32,29.87,29.81,10,4,10,0.00
2014-8-9,100,89,72,72,63,42,67,47,18,29.81,29.70,12,6,12,0.00
2014-8-10,91,82,72,73,69,62,84,67,52,29.77,29.73,16,7,16,0.00
2014-8-11,94,88,80,73,70,67,78,57,44,29.86,29.81,9,4,11,0.00
2014-8-12,90,83,77,70,68,65,78,64,49,29.89,29.78,13,6,15,0.00
2014-8-13,90,79,77,72,67,60,81,70,40,29.80,29.68,23,8,23,0.00
2014-8-14,84,81,76,58,54,53,55,43,38,29.96,29.94,11,7,14,0.00
2014-8-15,82,76,73,69,63,61,76,66,53,30.00,29.96,8,3,8,0.01
2014-8-16,70,69,68,70,63,58,99,81,69,30.08,29.99,4,2,5,0.00
2014-8-17,85,79,62,58,54,47,88,46,31,30.05,29.92,11,5,15,0.31
2014-8-18,89,82,63,58,56,51,71,45,31,29.89,29.74,10,4,11,0.00
2014-8-19,89,86,82,66,62,60,59,47,40,29.82,29.80,8,5,11,0.00
2014-8-20,87,85,84,66,65,64,56,53,50,29.89,29.87,11,5,13,0.00
2014-8-21,88,83,77,68,66,64,73,57,49,29.92,29.86,11,7,16,0.00
2014-8-22,85,77,72,67,66,65,83,71,53,29.88,29.83,16,7,16,0.00
2014-8-23,81,79,76,61,58,56,57,50,46,29.97,29.91,8,6,10,0.00
2014-8-24,85,80,70,60,57,56,69,50,40,30.05,29.97,10,3,13,0.00
2014-8-25,86,84,68,65,62,52,58,48,46,29.98,29.89,9,4,13,0.00
2014-8-26,90,87,79,64,60,54,50,43,34,29.85,29.79,15,6,15,0.00
2014-8-27,92,87,67,70,63,47,60,48,29,29.85,29.82,11,5,12,0.00
2014-8-28,93,89,72,68,62,55,79,44,32,29.91,29.88,11,5,11,0.00
2014-8-29,98,88,76,65,53,42,63,36,21,29.93,29.84,10,4,11,0.00
2014-8-30,88,81,75,69,65,60,80,61,42,29.93,29.89,18,8,18,0.00
2014-8-31,95,84,75,65,60,48,64,49,24,29.94,29.53,15,6,17,0.00
2014-9-1,90,85,71,68,64,59,76,52,38,29.89,29.82,12,7,15,0.00
2014-9-2,88,80,68,65,63,60,78,59,44,29.86,29.77,11,4,14,0.00
2014-9-3,88,80,70,64,60,53,82,56,33,29.78,29.74,13,6,15,0.00
2014-9-4,84,79,71,67,66,65,83,65,56,29.84,29.79,8,4,9,0.00
2014-9-5,89,88,86,63,62,61,46,44,42,29.86,29.81,15,8,15,0.00
2014-9-6,86,80,70,70,66,64,81,66,49,29.84,29.81,10,4,11,0.00
2014-9-7,89,84,75,70,67,64,83,60,46,29.83,29.76,12,6,15,0.00
2014-9-8,91,84,70,71,68,64,84,61,46,29.86,29.81,18,9,18,0.00
2014-9-9,95,88,72,64,61,57,74,45,31,29.88,29.82,12,6,13,0.00
2014-9-10,89,83,71,69,63,57,73,54,39,29.84,29.75,15,7,15,0.00
2014-9-11,92,84,72,67,65,62,83,57,42,29.75,29.72,14,7,17,0.00
2014-9-12,88,85,78,69,68,66,70,58,50,29.88,29.78,12,6,12,0.00
2014-9-13,72,72,71,66,66,66,82,82,81,29.90,29.90,4,3,4,0.00
2014-9-14,88,86,84,67,66,65,57,52,49,29.85,29.84,8,4,8,0.00
2014-9-15,89,79,71,66,65,63,83,65,44,29.79,29.74,12,6,15,0.00
2014-9-16,87,80,70,68,66,64,84,64,52,29.78,29.73,15,9,20,0.00
2014-9-17,94,89,84,66,64,60,55,46,36,29.68,29.66,9,4,9,0.00
2014-9-18,86,84,82,66,66,65,60,56,53,29.73,29.70,9,7,10,0.00
2014-9-19,87,81,72,70,68,66,84,66,52,29.87,29.75,12,5,15,0.00
2014-9-20,98,83,72,68,60,48,67,50,22,29.95,29.84,14,4,14,0.00
2014-9-21,89,80,73,68,65,62,73,61,48,29.98,29.90,8,3,11,0.00
2014-9-22,76,71,70,74,69,65,99,92,77,29.83,29.76,7,2,10,0.25
2014-9-23,81,70,64,67,63,60,99,81,52,29.86,29.79,6,2,7,0.01
2014-9-24,86,73,65,68,63,56,96,74,45,29.89,29.83,8,3,8,0.02
2014-9-25,76,70,61,68,55,49,99,67,41,30.06,29.92,12,6,15,0.47
2014-9-26,83,73,65,56,52,46,70,52,31,30.13,30.06,9,4,9,0.00
2014-9-27,71,62,57,57,54,53,86,77,60,30.11,30.09,5,4,6,0.00
2014-9-28,77,72,69,73,70,67,99,92,78,30.06,30.01,8,3,10,0.59
2014-9-29,80,70,68,75,69,67,99,98,75,30.10,30.04,17,4,17,0.41
2014-9-30,82,69,63,68,67,62,99,94,62,30.11,30.03,8,2,8,0.08
2014-10-1,83,75,67,67,63,59,99,70,48,30.16,30.12,14,7,16,0.00
2014-10-2,66,66,66,63,63,62,92,90,89,30.13,30.12,3,2,4,0.00
2014-10-3,84,73,61,62,57,53,75,60,41,30.06,29.98,13,4,13,0.00
2014-10-4,70,65,60,57,56,55,85,74,63,29.96,29.94,3,2,3,0.00
2014-10-5,85,76,63,60,53,40,75,49,26,29.91,29.87,8,3,9,0.00
2014-10-6,82,72,62,63,62,60,99,73,49,29.86,29.78,11,4,11,0.00
2014-10-7,84,78,66,68,64,62,99,67,51,29.84,29.78,14,7,16,0.00
2014-10-8,70,67,64,68,65,64,99,94,85,29.84,29.79,4,2,4,0.00
2014-10-9,83,76,65,66,64,61,99,69,49,29.80,29.78,16,7,16,0.00
2014-10-10,84,74,65,71,67,65,99,83,54,29.86,29.78,14,3,16,0.00
2014-10-11,80,74,65,68,66,64,99,78,60,29.86,29.78,9,3,9,0.00
2014-10-12,86,75,70,70,65,62,77,72,56,29.78,29.71,4,2,8,0.00
2014-10-13,78,71,69,60,56,50,71,61,40,29.79,29.74,8,4,8,0.00
2014-10-20,70,69,68,68,63,57,95,82,69,30.04,30.03,4,3,6,0.00
2014-10-21,93,61,58,52,49,42,73,67,21,30.03,29.99,3,2,4,0.00
2014-10-22,72,70,65,61,54,48,73,60,45,30.13,30.01,8,4,9,0.00
2014-10-23,78,68,57,53,41,25,85,51,18,30.06,29.97,14,6,14,0.00
2014-10-24,83,74,53,52,42,34,51,36,21,29.90,29.89,11,6,11,0.00
2014-10-25,90,66,57,48,42,24,54,45,15,30.05,29.96,4,2,5,0.00
2014-10-26,85,73,60,58,51,44,69,51,29,30.08,30.03,9,4,9,0.00
2014-10-27,72,68,58,56,52,50,86,60,50,30.08,30.00,8,3,9,0.00
2014-10-28,84,70,58,57,52,45,91,62,29,29.96,29.93,6,3,6,0.00
2014-10-29,68,64,58,58,57,54,99,80,68,29.99,29.91,7,4,7,0.00
2014-10-30,80,70,58,60,55,52,99,64,42,30.08,30.06,8,4,11,0.00
2014-10-31,77,71,58,60,54,50,99,59,41,30.12,30.08,13,7,14,0.00
2014-11-2,71,67,61,58,53,52,91,62,54,30.08,29.97,6,3,8,0.00
2014-11-3,71,67,57,60,56,55,99,72,61,29.91,29.68,17,8,20,0.00
2014-11-4,70,66,61,67,58,52,99,78,67,29.54,29.31,27,12,27,0.80
2014-11-5,66,55,52,53,48,46,99,80,52,29.67,29.48,5,3,6,0.13
2014-11-6,68,56,50,50,46,38,94,72,36,29.84,29.77,8,3,11,0.04
2014-11-7,58,51,49,54,50,48,99,95,83,29.86,29.76,4,1,7,0.00
2014-11-8,67,61,58,52,52,52,82,73,60,29.87,29.73,3,2,4,0.00
2014-11-9,69,59,54,54,51,44,90,78,43,29.72,29.63,6,2,7,0.01
2014-11-10,64,60,54,55,50,48,99,72,58,29.78,29.74,8,3,10,0.14
2014-11-11,60,56,48,58,54,45,99,92,78,29.70,29.51,12,4,15,0.91
2014-11-12,56,55,53,56,53,50,99,93,81,29.80,29.58,3,1,3,0.04
2014-11-13,73,62,51,57,54,45,99,77,39,29.86,29.78,11,4,12,0.00
2014-11-14,69,65,57,63,61,57,99,87,80,29.73,29.63,8,4,12,0.00
2014-11-15,62,60,57,56,47,41,93,67,48,29.77,29.62,8,4,14,0.08
2014-11-16,64,61,59,50,43,39,70,54,45,29.76,29.72,11,4,12,0.00
2014-11-17,62,59,56,46,44,42,62,58,55,29.73,29.65,7,4,15,0.00
2014-11-18,74,53,47,53,46,44,93,81,46,29.86,29.78,6,4,7,0.00
2014-11-19,70,55,50,54,51,48,99,88,47,29.98,29.88,4,2,4,0.00
2014-11-20,73,66,58,58,56,54,91,74,55,30.05,30.01,10,5,11,0.00
2014-11-21,63,57,54,62,55,53,99,94,81,30.00,29.97,4,3,5,0.00
2014-11-22,58,58,57,47,47,46,69,68,67,29.94,29.93,5,4,6,0.00
2014-11-23,87,62,58,49,44,29,66,56,16,29.96,29.55,4,2,7,0.00
2014-11-24,60,59,59,58,57,56,93,92,90,29.92,29.91,5,3,5,0.00
2014-11-25,75,63,58,68,58,52,99,84,60,29.98,29.91,5,2,8,0.00
2014-11-26,67,60,57,65,59,57,99,98,83,29.81,29.78,9,3,11,0.33
2014-11-27,65,59,57,62,58,57,99,97,90,29.69,29.45,5,2,5,0.00
2014-11-28,66,63,62,56,54,51,77,72,67,29.32,29.29,9,5,11,0.00
2014-11-29,68,63,61,60,57,55,93,81,65,29.33,29.29,12,7,15,0.20
2014-11-30,67,63,57,62,56,51,99,82,57,29.26,29.21,17,9,18,0.43
2014-12-1,62,58,55,56,51,48,87,78,67,29.44,29.24,23,8,27,0.44
2014-12-2,57,56,55,51,48,46,86,77,70,29.66,29.51,12,4,13,0.01
2014-12-3,56,54,50,56,54,50,99,98,92,29.73,29.70,8,4,9,0.06
2014-12-4,65,57,49,62,53,46,99,88,65,29.71,29.67,5,2,6,0.04
2014-12-5,65,56,49,43,40,34,78,56,35,29.98,29.89,11,5,14,0.12
2014-12-6,60,54,47,42,38,35,84,57,41,29.99,29.91,16,7,21,0.01
2014-12-7,56,49,41,45,39,32,95,71,46,30.13,30.00,12,4,12,0.00
2014-12-8,63,57,49,46,41,36,75,57,39,30.16,30.06,16,4,16,0.00
2014-12-9,56,54,53,21,4,-9,31,17,10,30.06,29.97,27,18,30,0.04
2014-12-10,53,52,49,39,32,8,63,51,20,30.25,30.22,12,5,12,0.00
2014-12-11,68,56,52,46,44,40,73,66,39,30.22,30.15,7,2,7,0.00
2014-12-12,57,50,43,49,45,40,93,84,74,30.12,29.98,7,4,7,0.00
2014-12-13,61,59,46,56,54,46,99,84,82,29.92,29.88,8,4,10,0.00
2014-12-14,53,53,53,52,51,51,97,94,92,29.88,29.87,4,2,6,0.00
2014-12-15,62,52,51,51,48,42,92,86,50,29.87,29.86,9,3,12,0.11
2014-12-16,60,55,52,48,46,45,85,74,60,29.84,29.79,8,4,11,0.12
2014-12-17,57,52,45,48,44,42,93,76,61,30.07,29.99,5,2,6,0.00